sensor_id;sensor_type;location;lat;lon;timestamp;P1;durP1;ratioP1;P2;durP2;ratioP2
67602;SDS011;54417;47.454;18.918;2023-02-26T00:03:46;2.88;;;2.28;;
67602;SDS011;54417;47.454;18.918;2023-02-26T00:09:12;1.92;;;1.75;;
67602;SDS011;54417;47.454;18.918;2023-02-26T00:14:36;1.73;;;1.30;;
67602;SDS011;54417;47.454;18.918;2023-02-26T00:20:00;1.77;;;1.67;;
67602;SDS011;54417;47.454;18.918;2023-02-26T00:25:26;3.38;;;2.63;;
67602;SDS011;54417;47.454;18.918;2023-02-26T00:30:50;2.15;;;1.90;;
67602;SDS011;54417;47.454;18.918;2023-02-26T00:36:18;3.45;;;1.95;;
67602;SDS011;54417;47.454;18.918;2023-02-26T00:41:46;2.92;;;2.45;;
67602;SDS011;54417;47.454;18.918;2023-02-26T00:47:12;3.75;;;2.97;;
67602;SDS011;54417;47.454;18.918;2023-02-26T00:52:46;3.50;;;2.30;;
67602;SDS011;54417;47.454;18.918;2023-02-26T00:58:19;4.38;;;2.92;;
67602;SDS011;54417;47.454;18.918;2023-02-26T01:03:43;2.55;;;2.20;;
67602;SDS011;54417;47.454;18.918;2023-02-26T01:09:09;3.65;;;2.53;;
67602;SDS011;54417;47.454;18.918;2023-02-26T01:14:39;3.05;;;2.35;;
67602;SDS011;54417;47.454;18.918;2023-02-26T01:20:05;3.10;;;2.20;;
67602;SDS011;54417;47.454;18.918;2023-02-26T01:25:37;2.53;;;2.13;;
67602;SDS011;54417;47.454;18.918;2023-02-26T01:31:05;2.53;;;2.00;;
67602;SDS011;54417;47.454;18.918;2023-02-26T01:36:41;6.13;;;2.58;;
67602;SDS011;54417;47.454;18.918;2023-02-26T01:42:12;2.55;;;1.73;;
67602;SDS011;54417;47.454;18.918;2023-02-26T01:47:42;2.72;;;2.20;;
67602;SDS011;54417;47.454;18.918;2023-02-26T01:53:15;2.60;;;2.10;;
67602;SDS011;54417;47.454;18.918;2023-02-26T01:58:40;2.55;;;1.83;;
67602;SDS011;54417;47.454;18.918;2023-02-26T02:04:06;4.80;;;3.00;;
67602;SDS011;54417;47.454;18.918;2023-02-26T02:09:34;4.40;;;3.47;;
67602;SDS011;54417;47.454;18.918;2023-02-26T02:15:03;3.17;;;2.30;;
67602;SDS011;54417;47.454;18.918;2023-02-26T02:20:49;2.50;;;2.30;;
67602;SDS011;54417;47.454;18.918;2023-02-26T02:32:21;4.15;;;3.47;;
67602;SDS011;54417;47.454;18.918;2023-02-26T02:37:53;4.47;;;2.53;;
67602;SDS011;54417;47.454;18.918;2023-02-26T02:43:21;6.18;;;3.75;;
67602;SDS011;54417;47.454;18.918;2023-02-26T02:48:52;5.20;;;3.45;;
67602;SDS011;54417;47.454;18.918;2023-02-26T02:54:21;5.57;;;3.58;;
67602;SDS011;54417;47.454;18.918;2023-02-26T02:59:50;5.30;;;3.60;;
67602;SDS011;54417;47.454;18.918;2023-02-26T03:05:20;4.13;;;3.38;;
67602;SDS011;54417;47.454;18.918;2023-02-26T03:10:44;6.43;;;3.03;;
67602;SDS011;54417;47.454;18.918;2023-02-26T03:16:14;4.15;;;3.08;;
67602;SDS011;54417;47.454;18.918;2023-02-26T03:21:54;3.88;;;3.30;;
67602;SDS011;54417;47.454;18.918;2023-02-26T03:27:42;4.80;;;3.35;;
67602;SDS011;54417;47.454;18.918;2023-02-26T03:33:13;4.07;;;3.67;;
67602;SDS011;54417;47.454;18.918;2023-02-26T03:38:45;4.72;;;4.05;;
67602;SDS011;54417;47.454;18.918;2023-02-26T03:44:13;5.35;;;3.38;;
67602;SDS011;54417;47.454;18.918;2023-02-26T03:49:42;6.32;;;2.72;;
67602;SDS011;54417;47.454;18.918;2023-02-26T03:55:12;3.97;;;3.30;;
67602;SDS011;54417;47.454;18.918;2023-02-26T04:00:51;6.00;;;4.05;;
67602;SDS011;54417;47.454;18.918;2023-02-26T04:06:19;3.90;;;3.15;;
67602;SDS011;54417;47.454;18.918;2023-02-26T04:11:46;4.53;;;4.00;;
67602;SDS011;54417;47.454;18.918;2023-02-26T04:17:12;4.43;;;3.55;;
67602;SDS011;54417;47.454;18.918;2023-02-26T04:22:36;4.07;;;3.38;;
67602;SDS011;54417;47.454;18.918;2023-02-26T04:28:02;3.58;;;3.10;;
67602;SDS011;54417;47.454;18.918;2023-02-26T04:33:27;5.22;;;3.88;;
67602;SDS011;54417;47.454;18.918;2023-02-26T04:38:51;4.40;;;4.00;;
67602;SDS011;54417;47.454;18.918;2023-02-26T04:44:17;4.90;;;3.88;;
67602;SDS011;54417;47.454;18.918;2023-02-26T04:49:41;4.22;;;3.50;;
67602;SDS011;54417;47.454;18.918;2023-02-26T04:55:06;5.43;;;3.95;;
67602;SDS011;54417;47.454;18.918;2023-02-26T05:00:34;4.72;;;3.47;;
67602;SDS011;54417;47.454;18.918;2023-02-26T05:05:58;4.55;;;3.75;;
67602;SDS011;54417;47.454;18.918;2023-02-26T05:11:22;3.75;;;2.75;;
67602;SDS011;54417;47.454;18.918;2023-02-26T05:16:47;4.55;;;2.70;;
67602;SDS011;54417;47.454;18.918;2023-02-26T05:22:11;2.60;;;2.40;;
67602;SDS011;54417;47.454;18.918;2023-02-26T05:27:35;4.72;;;3.10;;
67602;SDS011;54417;47.454;18.918;2023-02-26T05:33:00;3.90;;;3.33;;
67602;SDS011;54417;47.454;18.918;2023-02-26T05:38:24;6.75;;;4.18;;
67602;SDS011;54417;47.454;18.918;2023-02-26T05:43:48;6.15;;;4.10;;
67602;SDS011;54417;47.454;18.918;2023-02-26T05:49:13;3.25;;;2.95;;
67602;SDS011;54417;47.454;18.918;2023-02-26T05:54:37;4.80;;;3.50;;
67602;SDS011;54417;47.454;18.918;2023-02-26T06:00:01;3.45;;;2.95;;
67602;SDS011;54417;47.454;18.918;2023-02-26T06:10:58;5.43;;;3.60;;
67602;SDS011;54417;47.454;18.918;2023-02-26T06:16:22;3.88;;;3.20;;
67602;SDS011;54417;47.454;18.918;2023-02-26T06:21:49;3.47;;;2.83;;
67602;SDS011;54417;47.454;18.918;2023-02-26T06:27:12;4.25;;;2.85;;
67602;SDS011;54417;47.454;18.918;2023-02-26T06:32:36;5.55;;;4.30;;
67602;SDS011;54417;47.454;18.918;2023-02-26T06:38:01;4.32;;;3.22;;
67602;SDS011;54417;47.454;18.918;2023-02-26T06:43:25;7.20;;;4.22;;
67602;SDS011;54417;47.454;18.918;2023-02-26T06:48:49;5.63;;;4.30;;
67602;SDS011;54417;47.454;18.918;2023-02-26T06:54:15;5.47;;;3.75;;
67602;SDS011;54417;47.454;18.918;2023-02-26T06:59:38;4.72;;;3.95;;
67602;SDS011;54417;47.454;18.918;2023-02-26T07:05:03;5.32;;;3.38;;
67602;SDS011;54417;47.454;18.918;2023-02-26T07:10:28;6.70;;;4.10;;
67602;SDS011;54417;47.454;18.918;2023-02-26T07:15:52;6.05;;;3.95;;
67602;SDS011;54417;47.454;18.918;2023-02-26T07:21:16;4.38;;;3.47;;
67602;SDS011;54417;47.454;18.918;2023-02-26T07:26:41;5.70;;;4.63;;
67602;SDS011;54417;47.454;18.918;2023-02-26T07:32:05;5.03;;;4.53;;
67602;SDS011;54417;47.454;18.918;2023-02-26T07:37:28;7.72;;;4.50;;
67602;SDS011;54417;47.454;18.918;2023-02-26T07:42:54;6.32;;;5.03;;
67602;SDS011;54417;47.454;18.918;2023-02-26T07:48:17;9.15;;;5.10;;
67602;SDS011;54417;47.454;18.918;2023-02-26T07:53:41;2.58;;;2.35;;
67602;SDS011;54417;47.454;18.918;2023-02-26T07:59:07;7.53;;;3.15;;
67602;SDS011;54417;47.454;18.918;2023-02-26T08:04:31;3.70;;;3.33;;
67602;SDS011;54417;47.454;18.918;2023-02-26T08:09:55;5.95;;;4.07;;
67602;SDS011;54417;47.454;18.918;2023-02-26T08:15:20;4.55;;;3.75;;
67602;SDS011;54417;47.454;18.918;2023-02-26T08:20:44;3.85;;;3.38;;
67602;SDS011;54417;47.454;18.918;2023-02-26T08:26:08;5.28;;;3.95;;
67602;SDS011;54417;47.454;18.918;2023-02-26T08:31:35;4.28;;;3.20;;
67602;SDS011;54417;47.454;18.918;2023-02-26T08:36:58;4.63;;;3.78;;
67602;SDS011;54417;47.454;18.918;2023-02-26T08:42:22;3.65;;;2.83;;
67602;SDS011;54417;47.454;18.918;2023-02-26T08:47:47;4.50;;;3.75;;
67602;SDS011;54417;47.454;18.918;2023-02-26T08:58:41;3.53;;;2.72;;
67602;SDS011;54417;47.454;18.918;2023-02-26T09:04:07;3.40;;;3.00;;
67602;SDS011;54417;47.454;18.918;2023-02-26T09:09:31;5.20;;;3.15;;
67602;SDS011;54417;47.454;18.918;2023-02-26T09:14:54;3.70;;;3.00;;
67602;SDS011;54417;47.454;18.918;2023-02-26T09:20:21;5.00;;;3.25;;
67602;SDS011;54417;47.454;18.918;2023-02-26T09:25:45;4.72;;;3.72;;
67602;SDS011;54417;47.454;18.918;2023-02-26T09:31:13;4.97;;;3.20;;
67602;SDS011;54417;47.454;18.918;2023-02-26T09:36:40;3.72;;;2.95;;
67602;SDS011;54417;47.454;18.918;2023-02-26T09:42:07;8.95;;;2.97;;
67602;SDS011;54417;47.454;18.918;2023-02-26T09:47:37;4.22;;;2.83;;
67602;SDS011;54417;47.454;18.918;2023-02-26T09:53:09;3.53;;;2.65;;
67602;SDS011;54417;47.454;18.918;2023-02-26T09:58:39;3.70;;;2.05;;
67602;SDS011;54417;47.454;18.918;2023-02-26T10:04:09;2.45;;;1.90;;
67602;SDS011;54417;47.454;18.918;2023-02-26T10:09:52;3.65;;;2.88;;
67602;SDS011;54417;47.454;18.918;2023-02-26T10:15:25;4.60;;;2.70;;
67602;SDS011;54417;47.454;18.918;2023-02-26T10:20:53;3.72;;;2.20;;
67602;SDS011;54417;47.454;18.918;2023-02-26T10:26:22;2.60;;;2.28;;
67602;SDS011;54417;47.454;18.918;2023-02-26T10:31:54;2.97;;;2.22;;
67602;SDS011;54417;47.454;18.918;2023-02-26T10:37:32;2.30;;;2.05;;
67602;SDS011;54417;47.454;18.918;2023-02-26T10:43:03;1.63;;;1.52;;
67602;SDS011;54417;47.454;18.918;2023-02-26T10:48:39;4.50;;;2.50;;
67602;SDS011;54417;47.454;18.918;2023-02-26T10:54:13;3.70;;;2.10;;
67602;SDS011;54417;47.454;18.918;2023-02-26T10:59:42;1.92;;;1.80;;
67602;SDS011;54417;47.454;18.918;2023-02-26T11:05:08;2.45;;;2.03;;
67602;SDS011;54417;47.454;18.918;2023-02-26T11:10:39;3.08;;;2.28;;
67602;SDS011;54417;47.454;18.918;2023-02-26T11:16:10;2.40;;;2.13;;
67602;SDS011;54417;47.454;18.918;2023-02-26T11:21:37;3.03;;;2.30;;
67602;SDS011;54417;47.454;18.918;2023-02-26T11:27:04;1.75;;;1.65;;
67602;SDS011;54417;47.454;18.918;2023-02-26T11:32:36;3.78;;;2.30;;
67602;SDS011;54417;47.454;18.918;2023-02-26T11:38:01;2.08;;;1.80;;
67602;SDS011;54417;47.454;18.918;2023-02-26T11:43:26;2.53;;;1.65;;
67602;SDS011;54417;47.454;18.918;2023-02-26T11:48:59;3.90;;;3.28;;
67602;SDS011;54417;47.454;18.918;2023-02-26T11:54:25;4.80;;;2.78;;
67602;SDS011;54417;47.454;18.918;2023-02-26T11:59:51;2.65;;;2.40;;
67602;SDS011;54417;47.454;18.918;2023-02-26T12:05:18;7.22;;;3.88;;
67602;SDS011;54417;47.454;18.918;2023-02-26T12:10:43;2.63;;;2.30;;
67602;SDS011;54417;47.454;18.918;2023-02-26T12:16:17;5.95;;;4.05;;
67602;SDS011;54417;47.454;18.918;2023-02-26T12:27:44;3.67;;;2.67;;
67602;SDS011;54417;47.454;18.918;2023-02-26T12:33:27;4.72;;;3.25;;
67602;SDS011;54417;47.454;18.918;2023-02-26T12:39:04;4.78;;;3.00;;
67602;SDS011;54417;47.454;18.918;2023-02-26T12:44:46;2.83;;;2.40;;
67602;SDS011;54417;47.454;18.918;2023-02-26T12:50:33;4.30;;;3.55;;
67602;SDS011;54417;47.454;18.918;2023-02-26T12:56:14;7.05;;;3.92;;
67602;SDS011;54417;47.454;18.918;2023-02-26T13:01:54;3.40;;;2.45;;
67602;SDS011;54417;47.454;18.918;2023-02-26T13:07:41;2.63;;;2.42;;
67602;SDS011;54417;47.454;18.918;2023-02-26T13:19:07;4.95;;;3.40;;
67602;SDS011;54417;47.454;18.918;2023-02-26T13:24:38;4.50;;;2.95;;
67602;SDS011;54417;47.454;18.918;2023-02-26T13:30:17;3.85;;;3.20;;
67602;SDS011;54417;47.454;18.918;2023-02-26T13:35:43;4.38;;;3.13;;
67602;SDS011;54417;47.454;18.918;2023-02-26T13:41:09;4.28;;;3.25;;
67602;SDS011;54417;47.454;18.918;2023-02-26T13:46:45;4.43;;;3.15;;
67602;SDS011;54417;47.454;18.918;2023-02-26T13:52:22;5.20;;;3.00;;
67602;SDS011;54417;47.454;18.918;2023-02-26T13:57:50;9.80;;;4.22;;
67602;SDS011;54417;47.454;18.918;2023-02-26T14:03:30;6.18;;;3.58;;
67602;SDS011;54417;47.454;18.918;2023-02-26T14:08:55;3.88;;;3.30;;
67602;SDS011;54417;47.454;18.918;2023-02-26T14:14:25;5.65;;;3.95;;
67602;SDS011;54417;47.454;18.918;2023-02-26T14:25:50;6.43;;;4.47;;
67602;SDS011;54417;47.454;18.918;2023-02-26T14:31:17;5.88;;;3.75;;
67602;SDS011;54417;47.454;18.918;2023-02-26T14:36:47;5.55;;;4.05;;
67602;SDS011;54417;47.454;18.918;2023-02-26T14:42:14;6.10;;;2.95;;
67602;SDS011;54417;47.454;18.918;2023-02-26T14:47:42;4.10;;;3.13;;
67602;SDS011;54417;47.454;18.918;2023-02-26T14:53:18;5.80;;;3.67;;
67602;SDS011;54417;47.454;18.918;2023-02-26T14:59:10;5.10;;;3.55;;
67602;SDS011;54417;47.454;18.918;2023-02-26T15:04:57;4.25;;;2.58;;
67602;SDS011;54417;47.454;18.918;2023-02-26T15:10:41;4.47;;;3.10;;
67602;SDS011;54417;47.454;18.918;2023-02-26T15:16:20;4.53;;;3.22;;
67602;SDS011;54417;47.454;18.918;2023-02-26T15:21:55;7.22;;;3.22;;
67602;SDS011;54417;47.454;18.918;2023-02-26T15:27:30;5.93;;;3.40;;
67602;SDS011;54417;47.454;18.918;2023-02-26T15:32:56;6.70;;;3.75;;
67602;SDS011;54417;47.454;18.918;2023-02-26T15:38:20;7.20;;;3.95;;
67602;SDS011;54417;47.454;18.918;2023-02-26T15:43:47;4.85;;;3.58;;
67602;SDS011;54417;47.454;18.918;2023-02-26T15:49:14;5.05;;;3.72;;
67602;SDS011;54417;47.454;18.918;2023-02-26T15:54:45;4.40;;;3.40;;
67602;SDS011;54417;47.454;18.918;2023-02-26T16:00:14;5.82;;;3.40;;
67602;SDS011;54417;47.454;18.918;2023-02-26T16:05:44;8.15;;;3.53;;
67602;SDS011;54417;47.454;18.918;2023-02-26T16:11:08;4.70;;;3.33;;
67602;SDS011;54417;47.454;18.918;2023-02-26T16:16:36;11.90;;;4.07;;
67602;SDS011;54417;47.454;18.918;2023-02-26T16:22:06;6.77;;;3.80;;
67602;SDS011;54417;47.454;18.918;2023-02-26T16:27:39;5.05;;;3.35;;
67602;SDS011;54417;47.454;18.918;2023-02-26T16:33:08;6.82;;;4.10;;
67602;SDS011;54417;47.454;18.918;2023-02-26T16:38:42;5.38;;;3.30;;
67602;SDS011;54417;47.454;18.918;2023-02-26T16:50:00;5.23;;;3.97;;
67602;SDS011;54417;47.454;18.918;2023-02-26T16:55:25;8.77;;;4.30;;
67602;SDS011;54417;47.454;18.918;2023-02-26T17:00:51;5.50;;;3.50;;
67602;SDS011;54417;47.454;18.918;2023-02-26T17:06:22;5.78;;;3.47;;
67602;SDS011;54417;47.454;18.918;2023-02-26T17:11:46;8.25;;;5.22;;
67602;SDS011;54417;47.454;18.918;2023-02-26T17:17:10;8.13;;;4.50;;
67602;SDS011;54417;47.454;18.918;2023-02-26T17:22:35;8.30;;;4.70;;
67602;SDS011;54417;47.454;18.918;2023-02-26T17:27:59;8.32;;;4.20;;
67602;SDS011;54417;47.454;18.918;2023-02-26T17:33:24;7.15;;;4.47;;
67602;SDS011;54417;47.454;18.918;2023-02-26T17:38:50;10.27;;;6.10;;
67602;SDS011;54417;47.454;18.918;2023-02-26T17:44:14;6.95;;;4.63;;
67602;SDS011;54417;47.454;18.918;2023-02-26T17:49:38;7.30;;;4.25;;
67602;SDS011;54417;47.454;18.918;2023-02-26T17:55:04;6.93;;;4.22;;
67602;SDS011;54417;47.454;18.918;2023-02-26T18:00:28;6.88;;;4.53;;
67602;SDS011;54417;47.454;18.918;2023-02-26T18:05:53;4.53;;;2.92;;
67602;SDS011;54417;47.454;18.918;2023-02-26T18:11:19;7.65;;;4.28;;
67602;SDS011;54417;47.454;18.918;2023-02-26T18:16:47;6.28;;;4.28;;
67602;SDS011;54417;47.454;18.918;2023-02-26T18:22:11;5.93;;;4.22;;
67602;SDS011;54417;47.454;18.918;2023-02-26T18:27:37;9.35;;;5.53;;
67602;SDS011;54417;47.454;18.918;2023-02-26T18:33:03;9.30;;;5.22;;
67602;SDS011;54417;47.454;18.918;2023-02-26T18:38:27;8.73;;;4.80;;
67602;SDS011;54417;47.454;18.918;2023-02-26T18:43:53;8.75;;;5.28;;
67602;SDS011;54417;47.454;18.918;2023-02-26T18:49:17;9.73;;;5.30;;
67602;SDS011;54417;47.454;18.918;2023-02-26T18:54:42;7.50;;;4.68;;
67602;SDS011;54417;47.454;18.918;2023-02-26T19:00:08;10.60;;;5.93;;
67602;SDS011;54417;47.454;18.918;2023-02-26T19:05:35;9.18;;;5.25;;
67602;SDS011;54417;47.454;18.918;2023-02-26T19:10:59;10.57;;;6.13;;
67602;SDS011;54417;47.454;18.918;2023-02-26T19:16:25;12.23;;;6.85;;
67602;SDS011;54417;47.454;18.918;2023-02-26T19:21:51;11.43;;;6.10;;
67602;SDS011;54417;47.454;18.918;2023-02-26T19:27:15;7.95;;;5.45;;
67602;SDS011;54417;47.454;18.918;2023-02-26T19:32:41;8.88;;;5.50;;
67602;SDS011;54417;47.454;18.918;2023-02-26T19:38:05;4.78;;;3.97;;
67602;SDS011;54417;47.454;18.918;2023-02-26T19:43:30;8.65;;;5.28;;
67602;SDS011;54417;47.454;18.918;2023-02-26T19:48:55;8.30;;;4.72;;
67602;SDS011;54417;47.454;18.918;2023-02-26T19:54:19;8.15;;;5.70;;
67602;SDS011;54417;47.454;18.918;2023-02-26T19:59:43;9.05;;;4.90;;
67602;SDS011;54417;47.454;18.918;2023-02-26T20:05:10;8.10;;;5.40;;
67602;SDS011;54417;47.454;18.918;2023-02-26T20:10:39;7.65;;;4.70;;
67602;SDS011;54417;47.454;18.918;2023-02-26T20:16:06;7.57;;;4.00;;
67602;SDS011;54417;47.454;18.918;2023-02-26T20:21:32;4.85;;;3.45;;
67602;SDS011;54417;47.454;18.918;2023-02-26T20:26:56;6.00;;;3.92;;
67602;SDS011;54417;47.454;18.918;2023-02-26T20:32:21;7.20;;;4.72;;
67602;SDS011;54417;47.454;18.918;2023-02-26T20:37:47;5.57;;;3.83;;
67602;SDS011;54417;47.454;18.918;2023-02-26T20:43:11;6.53;;;4.10;;
67602;SDS011;54417;47.454;18.918;2023-02-26T20:48:35;5.78;;;4.10;;
67602;SDS011;54417;47.454;18.918;2023-02-26T20:54:04;7.22;;;4.53;;
67602;SDS011;54417;47.454;18.918;2023-02-26T20:59:28;6.38;;;4.05;;
67602;SDS011;54417;47.454;18.918;2023-02-26T21:04:52;6.72;;;4.53;;
67602;SDS011;54417;47.454;18.918;2023-02-26T21:10:17;13.43;;;5.70;;
67602;SDS011;54417;47.454;18.918;2023-02-26T21:15:42;10.57;;;5.82;;
67602;SDS011;54417;47.454;18.918;2023-02-26T21:21:06;18.48;;;8.68;;
67602;SDS011;54417;47.454;18.918;2023-02-26T21:26:31;8.50;;;6.18;;
67602;SDS011;54417;47.454;18.918;2023-02-26T21:31:56;10.90;;;6.75;;
67602;SDS011;54417;47.454;18.918;2023-02-26T21:37:24;7.35;;;5.20;;
67602;SDS011;54417;47.454;18.918;2023-02-26T21:42:50;7.55;;;4.57;;
67602;SDS011;54417;47.454;18.918;2023-02-26T21:48:14;7.63;;;4.32;;
67602;SDS011;54417;47.454;18.918;2023-02-26T21:53:37;9.80;;;4.53;;
67602;SDS011;54417;47.454;18.918;2023-02-26T21:59:03;6.72;;;3.88;;
67602;SDS011;54417;47.454;18.918;2023-02-26T22:04:27;7.03;;;4.10;;
67602;SDS011;54417;47.454;18.918;2023-02-26T22:09:50;22.90;;;3.90;;
67602;SDS011;54417;47.454;18.918;2023-02-26T22:15:16;4.93;;;3.28;;
67602;SDS011;54417;47.454;18.918;2023-02-26T22:20:40;6.70;;;3.53;;
67602;SDS011;54417;47.454;18.918;2023-02-26T22:26:04;23.67;;;10.05;;
67602;SDS011;54417;47.454;18.918;2023-02-26T22:31:29;14.90;;;6.18;;
67602;SDS011;54417;47.454;18.918;2023-02-26T22:36:54;6.82;;;4.20;;
67602;SDS011;54417;47.454;18.918;2023-02-26T22:42:18;6.88;;;3.95;;
67602;SDS011;54417;47.454;18.918;2023-02-26T22:47:43;12.00;;;3.70;;
67602;SDS011;54417;47.454;18.918;2023-02-26T22:53:07;5.43;;;3.80;;
67602;SDS011;54417;47.454;18.918;2023-02-26T22:58:31;7.20;;;3.15;;
67602;SDS011;54417;47.454;18.918;2023-02-26T23:03:57;3.90;;;2.90;;
67602;SDS011;54417;47.454;18.918;2023-02-26T23:09:21;8.50;;;3.38;;
67602;SDS011;54417;47.454;18.918;2023-02-26T23:14:45;4.25;;;2.80;;
67602;SDS011;54417;47.454;18.918;2023-02-26T23:20:11;3.97;;;2.53;;
67602;SDS011;54417;47.454;18.918;2023-02-26T23:25:36;7.82;;;2.88;;
67602;SDS011;54417;47.454;18.918;2023-02-26T23:30:59;3.80;;;2.95;;
67602;SDS011;54417;47.454;18.918;2023-02-26T23:36:25;3.97;;;2.63;;
67602;SDS011;54417;47.454;18.918;2023-02-26T23:41:49;3.65;;;2.78;;
67602;SDS011;54417;47.454;18.918;2023-02-26T23:47:12;2.75;;;2.33;;
67602;SDS011;54417;47.454;18.918;2023-02-26T23:52:37;4.30;;;3.00;;
67602;SDS011;54417;47.454;18.918;2023-02-26T23:58:01;5.25;;;3.17;;
